createdAt,value
2018-09-30T00:01:16.157Z,7.23
2018-09-30T00:03:50.760Z,7.16
2018-09-30T00:06:25.420Z,7.14
2018-09-30T00:09:00.022Z,7.17
2018-09-30T00:11:34.600Z,7.25
2018-09-30T00:14:09.030Z,7.27
2018-09-30T00:16:43.545Z,7.42
2018-09-30T00:19:17.998Z,7.50
2018-09-30T00:21:52.472Z,7.55
2018-09-30T00:24:32.584Z,7.56
2018-09-30T00:27:12.421Z,7.51
2018-09-30T00:29:47.056Z,7.64
2018-09-30T00:32:21.535Z,7.79
2018-09-30T00:34:56.179Z,7.83
2018-09-30T00:37:30.798Z,7.85
2018-09-30T00:40:05.329Z,7.93
2018-09-30T00:42:40.216Z,7.96
2018-09-30T00:45:14.598Z,8.00
2018-09-30T00:47:49.281Z,8.09
2018-09-30T00:50:23.898Z,8.15
2018-09-30T00:52:58.380Z,8.12
2018-09-30T00:55:32.933Z,8.10
2018-09-30T00:58:07.457Z,8.06
2018-09-30T01:00:42.045Z,7.94
2018-09-30T01:03:16.808Z,7.85
2018-09-30T01:05:51.419Z,7.75
2018-09-30T01:08:25.964Z,7.61
2018-09-30T01:11:00.620Z,7.63
2018-09-30T01:13:35.189Z,7.67
2018-09-30T01:16:10.160Z,7.63
2018-09-30T01:18:44.829Z,7.61
2018-09-30T01:21:19.411Z,7.60
2018-09-30T01:23:54.073Z,7.56
2018-09-30T01:26:28.569Z,7.61
2018-09-30T01:29:02.972Z,7.67
2018-09-30T01:31:37.468Z,7.65
2018-09-30T01:34:12.060Z,7.74
2018-09-30T01:36:46.528Z,7.79
2018-09-30T01:39:20.968Z,7.76
2018-09-30T01:41:55.364Z,7.66
2018-09-30T01:44:30.186Z,7.67
2018-09-30T01:47:04.792Z,7.73
2018-09-30T01:49:39.452Z,7.76
2018-09-30T01:52:25.239Z,7.79
2018-09-30T01:54:59.737Z,7.79
2018-09-30T01:57:36.512Z,7.75
2018-09-30T02:00:12.079Z,7.70
2018-09-30T02:03:03.115Z,7.63
2018-09-30T02:05:37.755Z,7.67
2018-09-30T02:08:12.260Z,7.67
2018-09-30T02:10:47.084Z,7.60
2018-09-30T02:13:21.864Z,7.58
2018-09-30T02:15:56.396Z,7.56
2018-09-30T02:18:31.773Z,7.66
2018-09-30T02:21:06.258Z,7.75
2018-09-30T02:23:40.844Z,7.85
2018-09-30T02:26:15.272Z,7.86
2018-09-30T02:28:50.185Z,7.81
2018-09-30T02:31:24.738Z,7.74
2018-09-30T02:34:06.736Z,7.75
2018-09-30T02:36:41.306Z,7.72
2018-09-30T02:39:15.592Z,7.69
2018-09-30T02:41:49.976Z,7.69
2018-09-30T02:47:42.866Z,7.66
2018-09-30T02:50:17.480Z,7.65
2018-09-30T02:52:52.040Z,7.65
2018-09-30T02:55:26.638Z,7.66
2018-09-30T02:58:01.398Z,7.73
2018-09-30T03:00:35.964Z,7.70
2018-09-30T03:03:10.397Z,7.72
2018-09-30T03:05:44.810Z,7.70
2018-09-30T03:08:24.713Z,7.71
2018-09-30T03:10:59.248Z,7.65
2018-09-30T03:13:33.780Z,7.66
2018-09-30T03:16:08.209Z,7.68
2018-09-30T03:18:42.695Z,7.69
2018-09-30T03:21:17.088Z,7.70
2018-09-30T03:23:51.776Z,7.70
2018-09-30T03:26:26.374Z,7.76
2018-09-30T03:29:01.021Z,7.68
2018-09-30T03:31:35.745Z,7.64
2018-09-30T03:34:10.231Z,7.56
2018-09-30T03:36:44.654Z,7.56
2018-09-30T03:39:19.061Z,7.54
2018-09-30T03:41:53.441Z,7.65
2018-09-30T03:44:27.898Z,7.80
2018-09-30T03:47:02.263Z,7.86
2018-09-30T03:49:37.019Z,7.86
2018-09-30T03:52:11.606Z,7.84
2018-09-30T03:54:46.421Z,7.84
2018-09-30T03:57:20.832Z,7.84
2018-09-30T03:59:55.339Z,7.88
2018-09-30T04:02:30.369Z,7.81
2018-09-30T04:05:04.815Z,7.73
2018-09-30T04:07:39.470Z,7.70
2018-09-30T04:10:13.926Z,7.66
2018-09-30T04:12:48.555Z,7.59
2018-09-30T04:15:23.347Z,7.57
2018-09-30T04:17:57.851Z,7.63
2018-09-30T04:20:32.429Z,7.64
2018-09-30T04:23:06.994Z,7.61
2018-09-30T04:25:41.432Z,7.60
2018-09-30T04:28:16.516Z,7.58
2018-09-30T04:30:50.992Z,7.59
2018-09-30T04:33:25.710Z,7.65
2018-09-30T04:36:00.423Z,7.67
2018-09-30T04:38:35.031Z,7.67
2018-09-30T04:41:09.480Z,7.68
2018-09-30T04:43:44.300Z,7.61
2018-09-30T04:46:18.956Z,7.53
2018-09-30T04:48:53.657Z,7.52
2018-09-30T04:51:28.310Z,7.48
2018-09-30T04:54:03.065Z,7.44
2018-09-30T04:56:37.660Z,7.45
2018-09-30T04:59:12.429Z,7.37
2018-09-30T05:01:46.981Z,7.28
2018-09-30T05:04:21.698Z,7.33
2018-09-30T05:10:03.122Z,7.39
2018-09-30T05:12:45.334Z,7.31
2018-09-30T05:15:19.782Z,7.27
2018-09-30T05:17:54.207Z,7.11
2018-09-30T05:20:28.603Z,7.04
2018-09-30T05:23:03.119Z,7.01
2018-09-30T05:25:37.845Z,7.07
2018-09-30T05:28:12.285Z,7.14
2018-09-30T05:30:46.775Z,7.15
2018-09-30T05:33:21.213Z,7.10
2018-09-30T05:35:56.081Z,7.06
2018-09-30T05:38:30.678Z,7.04
2018-09-30T05:41:05.452Z,7.03
2018-09-30T05:43:39.939Z,7.11
2018-09-30T05:46:14.614Z,7.12
2018-09-30T05:48:49.172Z,7.18
2018-09-30T05:51:23.735Z,7.15
2018-09-30T05:53:58.134Z,7.16
2018-09-30T05:56:32.782Z,7.16
2018-09-30T06:02:20.601Z,7.19
2018-09-30T06:04:55.116Z,7.22
2018-09-30T06:07:29.695Z,7.26
2018-09-30T06:10:04.252Z,7.29
2018-09-30T06:12:38.808Z,7.30
2018-09-30T06:15:13.253Z,7.40
2018-09-30T06:17:47.683Z,7.42
2018-09-30T06:20:22.192Z,7.47
2018-09-30T06:22:56.695Z,7.54
2018-09-30T06:25:31.365Z,7.59
2018-09-30T06:28:05.847Z,7.59
2018-09-30T06:30:40.343Z,7.60
2018-09-30T06:33:14.871Z,7.67
2018-09-30T06:35:49.323Z,7.72
2018-09-30T06:38:23.736Z,7.77
2018-09-30T06:40:58.192Z,7.88
2018-09-30T06:43:33.268Z,8.00
2018-09-30T06:46:07.900Z,8.13
2018-09-30T06:48:42.932Z,8.18
2018-09-30T06:51:17.456Z,8.29
2018-09-30T06:53:59.501Z,9.51
2018-09-30T06:56:34.171Z,11.38
2018-09-30T06:59:08.984Z,12.19
2018-09-30T07:01:43.563Z,13.98
2018-09-30T07:04:17.900Z,17.91
2018-09-30T07:06:52.285Z,21.48
2018-09-30T07:09:26.809Z,23.78
2018-09-30T07:12:01.288Z,24.42
2018-09-30T07:14:36.160Z,24.88
2018-09-30T07:17:10.571Z,24.90
2018-09-30T07:19:45.306Z,24.66
2018-09-30T07:22:19.758Z,23.28
2018-09-30T07:24:54.191Z,20.52
2018-09-30T07:27:28.654Z,19.67
2018-09-30T07:30:07.928Z,20.86
2018-09-30T07:32:42.408Z,22.03
2018-09-30T07:35:17.708Z,23.50
2018-09-30T07:37:52.398Z,21.90
2018-09-30T07:40:26.988Z,17.22
2018-09-30T07:43:01.476Z,16.50
2018-09-30T07:45:35.965Z,15.43
2018-09-30T07:48:15.796Z,14.00
2018-09-30T07:50:50.341Z,13.56
2018-09-30T07:53:25.080Z,13.45
2018-09-30T07:56:18.252Z,13.49
2018-09-30T07:58:52.994Z,13.28
2018-09-30T08:01:28.192Z,12.86
2018-09-30T08:04:02.793Z,12.68
2018-09-30T08:06:37.354Z,12.30
2018-09-30T08:09:12.660Z,12.18
2018-09-30T08:11:47.205Z,12.28
2018-09-30T08:14:21.668Z,12.39
2018-09-30T08:16:56.136Z,12.40
2018-09-30T08:19:30.945Z,12.55
2018-09-30T08:22:05.672Z,12.25
2018-09-30T08:24:40.454Z,12.60
2018-09-30T08:27:15.246Z,12.56
2018-09-30T08:29:50.085Z,13.10
2018-09-30T08:32:24.619Z,13.47
2018-09-30T08:34:58.977Z,13.56
2018-09-30T08:37:38.654Z,13.26
2018-09-30T08:40:13.308Z,13.75
2018-09-30T08:42:47.801Z,13.01
2018-09-30T08:45:22.266Z,12.95
2018-09-30T08:47:57.488Z,12.58
2018-09-30T08:50:31.933Z,13.27
2018-09-30T08:53:06.660Z,13.62
2018-09-30T08:55:41.221Z,13.92
2018-09-30T08:58:15.772Z,14.43
2018-09-30T09:00:50.412Z,14.12
2018-09-30T09:03:25.711Z,13.82
2018-09-30T09:06:00.174Z,14.05
2018-09-30T09:08:34.637Z,13.95
2018-09-30T09:11:09.226Z,15.12
2018-09-30T09:13:44.145Z,15.19
2018-09-30T09:16:19.105Z,14.53
2018-09-30T09:18:54.181Z,14.29
2018-09-30T09:30:32.874Z,16.55
2018-09-30T09:33:07.526Z,16.30
2018-09-30T09:35:42.204Z,15.26
2018-09-30T09:38:16.937Z,14.32
2018-09-30T09:40:51.478Z,14.08
2018-09-30T09:43:26.041Z,14.03
2018-09-30T09:46:00.784Z,14.34
2018-09-30T09:48:35.408Z,13.77
2018-09-30T09:51:09.921Z,13.85
2018-09-30T09:53:44.601Z,13.84
2018-09-30T09:56:19.134Z,13.58
2018-09-30T10:01:35.568Z,13.55
2018-09-30T10:04:09.946Z,13.57
2018-09-30T10:06:44.604Z,13.75
2018-09-30T10:09:19.094Z,13.92
2018-09-30T10:11:53.676Z,13.92
2018-09-30T10:14:28.075Z,13.74
2018-09-30T10:17:02.531Z,13.79
2018-09-30T10:19:37.016Z,13.90
2018-09-30T10:22:11.535Z,13.91
2018-09-30T10:24:45.851Z,14.02
2018-09-30T10:27:20.170Z,13.95
2018-09-30T10:29:54.638Z,13.86
2018-09-30T10:32:29.060Z,13.77
2018-09-30T10:35:03.364Z,13.66
2018-09-30T10:37:37.792Z,13.61
2018-09-30T10:40:12.239Z,13.70
2018-09-30T10:42:46.704Z,13.86
2018-09-30T10:45:20.964Z,14.01
2018-09-30T10:47:55.751Z,14.11
2018-09-30T10:50:30.121Z,14.20
2018-09-30T10:53:04.422Z,13.94
2018-09-30T10:55:38.713Z,14.05
2018-09-30T10:58:13.260Z,14.12
2018-09-30T11:00:47.775Z,14.12
2018-09-30T11:03:22.179Z,14.13
2018-09-30T11:05:56.552Z,14.10
2018-09-30T11:08:30.960Z,14.11
2018-09-30T11:11:05.415Z,14.03
2018-09-30T11:13:39.871Z,14.05
2018-09-30T11:16:14.392Z,14.13
2018-09-30T11:18:48.807Z,14.30
2018-09-30T11:21:23.095Z,14.31
2018-09-30T11:23:57.443Z,14.28
2018-09-30T11:26:31.795Z,14.39
2018-09-30T11:29:06.476Z,14.21
2018-09-30T11:31:41.436Z,14.15
2018-09-30T11:34:15.996Z,14.03
2018-09-30T11:36:54.415Z,14.09
2018-09-30T11:39:29.051Z,14.15
2018-09-30T11:42:04.269Z,14.28
2018-09-30T11:44:38.933Z,14.42
2018-09-30T11:47:13.485Z,14.48
2018-09-30T11:49:48.194Z,14.53
2018-09-30T11:52:23.310Z,14.57
2018-09-30T11:54:57.849Z,14.62
2018-09-30T11:57:32.936Z,14.75
2018-09-30T12:00:07.637Z,14.88
2018-09-30T12:02:42.348Z,14.87
2018-09-30T12:05:17.179Z,15.04
2018-09-30T12:07:52.021Z,15.16
2018-09-30T12:10:26.765Z,15.14
2018-09-30T12:13:01.349Z,15.25
2018-09-30T12:15:36.081Z,15.18
2018-09-30T12:18:10.600Z,15.10
2018-09-30T12:20:45.365Z,15.07
2018-09-30T12:23:20.070Z,15.06
2018-09-30T12:25:54.963Z,15.22
2018-09-30T12:28:29.673Z,15.39
2018-09-30T12:31:04.224Z,15.42
2018-09-30T12:33:39.259Z,15.43
2018-09-30T12:36:14.188Z,15.40
2018-09-30T12:38:49.017Z,15.45
2018-09-30T12:41:23.642Z,15.50
2018-09-30T12:43:58.374Z,15.65
2018-09-30T12:46:33.267Z,15.70
2018-09-30T12:49:17.929Z,15.77
2018-09-30T12:52:05.929Z,15.80
2018-09-30T12:54:40.856Z,15.79
2018-09-30T12:57:15.632Z,15.72
2018-09-30T12:59:50.501Z,15.78
2018-09-30T13:02:26.243Z,15.81
2018-09-30T13:05:01.361Z,15.77
2018-09-30T13:07:35.932Z,15.76
2018-09-30T13:10:10.360Z,15.77
2018-09-30T13:12:45.232Z,15.78
2018-09-30T13:15:19.828Z,15.87
2018-09-30T13:17:54.485Z,15.67
2018-09-30T13:20:29.179Z,15.70
2018-09-30T13:23:03.785Z,15.70
2018-09-30T13:25:42.289Z,15.70
2018-09-30T13:28:18.973Z,15.59
2018-09-30T13:30:57.488Z,15.51
2018-09-30T13:33:32.459Z,15.69
2018-09-30T13:36:07.102Z,15.61
2018-09-30T13:38:41.705Z,15.79
2018-09-30T13:41:16.278Z,15.71
2018-09-30T13:43:50.856Z,15.58
2018-09-30T13:46:25.395Z,15.68
2018-09-30T13:48:59.872Z,15.71
2018-09-30T13:51:34.569Z,15.76
2018-09-30T13:54:09.229Z,15.75
2018-09-30T13:56:43.988Z,15.80
2018-09-30T13:59:18.775Z,15.79
2018-09-30T14:01:53.342Z,15.77
2018-09-30T14:04:27.900Z,15.86
2018-09-30T14:07:02.332Z,15.88
2018-09-30T14:09:36.800Z,15.82
2018-09-30T14:12:11.425Z,15.81
2018-09-30T14:14:45.992Z,15.98
2018-09-30T14:17:20.523Z,15.98
2018-09-30T14:19:55.107Z,15.98
2018-09-30T14:22:29.968Z,15.93
2018-09-30T14:25:04.844Z,16.01
2018-09-30T14:27:39.393Z,16.19
2018-09-30T14:30:13.946Z,16.42
2018-09-30T14:32:48.621Z,16.67
2018-09-30T14:35:23.212Z,17.02
2018-09-30T14:37:57.836Z,17.31
2018-09-30T14:40:32.408Z,17.27
2018-09-30T14:43:07.064Z,17.44
2018-09-30T14:45:41.685Z,17.66
2018-09-30T14:48:17.001Z,17.65
2018-09-30T14:50:51.581Z,17.38
2018-09-30T14:53:26.248Z,17.13
2018-09-30T14:56:00.694Z,17.06
2018-09-30T14:58:35.324Z,17.32
2018-09-30T15:01:09.990Z,17.14
2018-09-30T15:03:44.624Z,16.98
2018-09-30T15:06:19.343Z,16.81
2018-09-30T15:08:54.112Z,16.75
2018-09-30T15:11:29.152Z,16.78
2018-09-30T15:14:04.069Z,16.71
2018-09-30T15:16:38.509Z,16.74
2018-09-30T15:19:13.086Z,16.69
2018-09-30T15:21:47.772Z,16.32
2018-09-30T15:24:22.405Z,16.04
2018-09-30T15:26:57.011Z,15.91
2018-09-30T15:29:31.574Z,15.76
2018-09-30T15:32:06.099Z,15.60
2018-09-30T15:34:40.680Z,15.44
2018-09-30T15:37:15.328Z,15.40
2018-09-30T15:39:49.933Z,15.38
2018-09-30T15:42:24.568Z,15.16
2018-09-30T15:44:59.194Z,15.12
2018-09-30T15:47:33.917Z,15.19
2018-09-30T15:50:08.427Z,15.10
2018-09-30T15:52:43.089Z,14.91
2018-09-30T15:55:17.818Z,14.90
2018-09-30T15:57:52.487Z,14.88
2018-09-30T16:00:27.169Z,14.94
2018-09-30T16:03:14.401Z,14.83
2018-09-30T16:05:48.771Z,14.77
2018-09-30T16:08:23.273Z,14.64
2018-09-30T16:10:57.889Z,14.50
2018-09-30T16:13:32.493Z,14.47
2018-09-30T16:16:07.485Z,14.73
2018-09-30T16:18:41.980Z,14.91
2018-09-30T16:21:16.718Z,15.24
2018-09-30T16:23:51.737Z,15.44
2018-09-30T16:26:28.212Z,15.71
2018-09-30T16:29:02.856Z,15.81
2018-09-30T16:31:37.337Z,15.74
2018-09-30T16:34:11.972Z,15.54
2018-09-30T16:36:46.723Z,15.23
2018-09-30T16:39:21.406Z,14.94
2018-09-30T16:41:56.249Z,14.52
2018-09-30T16:44:31.133Z,14.12
2018-09-30T16:47:05.724Z,13.72
2018-09-30T16:49:40.200Z,13.35
2018-09-30T16:52:14.808Z,13.03
2018-09-30T16:54:49.473Z,12.74
2018-09-30T16:57:24.116Z,12.53
2018-09-30T16:59:58.648Z,12.31
2018-09-30T17:02:33.193Z,12.12
2018-09-30T17:05:07.983Z,11.95
2018-09-30T17:07:43.228Z,11.83
2018-09-30T17:10:17.841Z,11.74
2018-09-30T17:12:52.313Z,11.65
2018-09-30T17:15:26.956Z,11.53
2018-09-30T17:18:01.438Z,11.45
2018-09-30T17:20:36.156Z,11.50
2018-09-30T17:23:10.688Z,11.39
2018-09-30T17:25:45.244Z,11.23
2018-09-30T17:28:19.759Z,11.15
2018-09-30T17:30:54.232Z,11.03
2018-09-30T17:33:29.177Z,11.17
2018-09-30T17:36:03.636Z,11.35
2018-09-30T17:38:38.199Z,11.24
2018-09-30T17:41:12.951Z,11.19
2018-09-30T17:43:47.564Z,11.17
2018-09-30T17:46:22.034Z,11.19
2018-09-30T17:48:56.696Z,11.19
2018-09-30T17:51:31.512Z,11.26
2018-09-30T17:54:06.309Z,11.16
2018-09-30T17:56:41.171Z,11.04
2018-09-30T17:59:15.573Z,10.96
2018-09-30T18:01:50.344Z,10.72
2018-09-30T18:04:25.336Z,10.50
2018-09-30T18:07:00.032Z,10.34
2018-09-30T18:09:34.524Z,10.19
2018-09-30T18:12:09.076Z,10.06
2018-09-30T18:14:43.455Z,9.93
2018-09-30T18:17:17.915Z,9.88
2018-09-30T18:19:52.489Z,9.82
2018-09-30T18:22:27.483Z,9.78
2018-09-30T18:25:02.009Z,9.70
2018-09-30T18:27:36.828Z,9.67
2018-09-30T18:30:12.112Z,9.60
2018-09-30T18:32:46.649Z,9.60
2018-09-30T18:35:21.240Z,9.56
2018-09-30T18:37:55.983Z,9.55
2018-09-30T18:40:38.449Z,9.52
2018-09-30T18:43:13.404Z,9.52
2018-09-30T18:45:48.233Z,9.52
2018-09-30T18:48:22.920Z,9.48
2018-09-30T18:50:57.402Z,9.45
2018-09-30T18:53:31.917Z,9.45
2018-09-30T18:56:07.032Z,9.36
2018-09-30T18:58:41.593Z,9.31
2018-09-30T19:01:16.149Z,9.29
2018-09-30T19:03:50.664Z,9.27
2018-09-30T19:06:25.429Z,9.23
2018-09-30T19:09:00.069Z,9.21
2018-09-30T19:11:34.702Z,9.20
2018-09-30T19:14:09.424Z,9.18
2018-09-30T19:16:44.157Z,9.15
2018-09-30T19:19:19.146Z,9.12
2018-09-30T19:21:53.643Z,9.11
2018-09-30T19:24:28.157Z,9.09
2018-09-30T19:27:02.688Z,9.08
2018-09-30T19:29:37.305Z,9.10
2018-09-30T19:32:11.704Z,9.15
2018-09-30T19:34:46.661Z,9.21
2018-09-30T19:37:21.140Z,9.32
2018-09-30T19:39:55.703Z,9.48
2018-09-30T19:42:30.141Z,9.63
2018-09-30T19:45:05.277Z,9.77
2018-09-30T19:47:39.749Z,9.91
2018-09-30T19:50:14.352Z,10.02
2018-09-30T19:52:49.045Z,10.12
2018-09-30T19:55:23.734Z,10.17
2018-09-30T19:58:04.440Z,10.36
2018-09-30T20:00:43.721Z,10.42
2018-09-30T20:03:18.352Z,10.51
2018-09-30T20:05:52.977Z,10.47
2018-09-30T20:08:27.609Z,10.41
2018-09-30T20:11:02.701Z,10.39
2018-09-30T20:13:37.388Z,10.44
2018-09-30T20:16:11.785Z,10.49
2018-09-30T20:18:46.236Z,10.50
2018-09-30T20:21:20.884Z,10.46
2018-09-30T20:23:55.793Z,10.49
2018-09-30T20:26:30.392Z,10.52
2018-09-30T20:29:05.085Z,10.53
2018-09-30T20:31:39.782Z,10.50
2018-09-30T20:34:14.412Z,10.52
2018-09-30T20:36:49.073Z,10.53
2018-09-30T20:39:23.612Z,10.51
2018-09-30T20:41:58.317Z,10.52
2018-09-30T20:44:32.868Z,10.53
2018-09-30T20:47:07.593Z,10.43
2018-09-30T20:49:42.233Z,10.50
2018-09-30T20:52:16.929Z,10.54
2018-09-30T20:54:51.385Z,10.60
2018-09-30T20:57:25.984Z,10.58
2018-09-30T21:00:00.875Z,10.63
2018-09-30T21:02:35.444Z,10.60
2018-09-30T21:05:19.464Z,10.50
2018-09-30T21:07:54.287Z,10.47
2018-09-30T21:10:28.765Z,10.46
2018-09-30T21:13:03.400Z,10.46
2018-09-30T21:15:37.993Z,10.44
2018-09-30T21:18:12.546Z,10.44
2018-09-30T21:20:47.497Z,10.46
2018-09-30T21:23:22.069Z,10.43
2018-09-30T21:25:56.985Z,10.42
2018-09-30T21:28:31.635Z,10.47
2018-09-30T21:31:06.164Z,10.50
2018-09-30T21:33:40.704Z,10.58
2018-09-30T21:36:15.341Z,10.60
2018-09-30T21:38:49.968Z,10.62
2018-09-30T21:41:24.532Z,10.59
2018-09-30T21:43:59.296Z,10.60
2018-09-30T21:46:33.712Z,10.69
2018-09-30T21:49:08.689Z,10.72
2018-09-30T21:51:43.112Z,10.75
2018-09-30T21:54:17.956Z,10.68
2018-09-30T21:56:52.572Z,10.66
2018-09-30T21:59:27.040Z,10.63
2018-09-30T22:02:01.538Z,10.58
2018-09-30T22:04:36.191Z,10.53
2018-09-30T22:07:10.718Z,10.47
2018-09-30T22:09:45.105Z,10.44
2018-09-30T22:12:19.580Z,10.40
2018-09-30T22:14:54.216Z,10.39
2018-09-30T22:17:28.912Z,10.32
2018-09-30T22:20:03.397Z,10.30
2018-09-30T22:22:38.385Z,10.28
2018-09-30T22:25:12.923Z,10.28
2018-09-30T22:27:47.864Z,10.30
2018-09-30T22:30:22.468Z,10.26
2018-09-30T22:32:57.029Z,10.24
2018-09-30T22:35:31.377Z,10.18
2018-09-30T22:38:06.032Z,10.13
2018-09-30T22:40:40.617Z,10.09
2018-09-30T22:43:15.248Z,10.10
2018-09-30T22:45:49.876Z,10.02
2018-09-30T22:48:24.423Z,9.98
2018-09-30T22:50:58.949Z,9.94
2018-09-30T22:53:33.591Z,9.89
2018-09-30T22:56:08.179Z,9.81
2018-09-30T22:58:43.120Z,9.73
2018-09-30T23:01:17.984Z,9.68
2018-09-30T23:03:52.960Z,9.64
2018-09-30T23:06:27.628Z,9.54
2018-09-30T23:09:02.101Z,9.42
2018-09-30T23:11:36.908Z,9.40
2018-09-30T23:14:11.441Z,9.34
2018-09-30T23:16:46.004Z,9.31
2018-09-30T23:19:20.500Z,9.24
2018-09-30T23:21:55.057Z,9.29
2018-09-30T23:24:29.573Z,9.28
2018-09-30T23:27:04.270Z,9.32
2018-09-30T23:29:39.008Z,9.30
2018-09-30T23:32:13.611Z,9.37
2018-09-30T23:34:48.217Z,9.41
2018-09-30T23:37:22.944Z,9.45
2018-09-30T23:40:17.372Z,9.50
2018-09-30T23:42:51.907Z,9.54
2018-09-30T23:45:26.840Z,9.56
2018-09-30T23:48:01.493Z,9.57
2018-09-30T23:50:36.136Z,9.58
2018-09-30T23:53:10.822Z,9.59
2018-09-30T23:55:45.697Z,9.62
2018-09-30T23:58:20.433Z,9.65
